Time;durP1;ratioP1;P1;durP2;ratioP2;P2;SDS_P1;SDS_P2;PMS_P1;PMS_P2;Temp;Humidity;BMP_temperature;BMP_pressure;BME280_temperature;BME280_humidity;BME280_pressure;Samples;Min_cycle;Max_cycle;Signal;HPM_P1;HPM_P2
2022/05/19 00:02:14;;;;;;;7.03;2.75;;;19.70;89.20;;;;;;5053769;28;20047;-80
2022/05/19 00:04:40;;;;;;;8.75;2.70;;;19.60;89.60;;;;;;5053544;28;20045;-80
2022/05/19 00:07:07;;;;;;;11.88;2.85;;;19.60;89.60;;;;;;5053431;28;20090;-81
2022/05/19 00:09:33;;;;;;;7.93;3.08;;;19.60;89.70;;;;;;5053102;28;20021;-80
2022/05/19 00:12:03;;;;;;;10.85;2.55;;;19.60;89.70;;;;;;5053317;28;20032;-81
2022/05/19 00:14:29;;;;;;;14.50;3.22;;;19.60;89.90;;;;;;5051911;28;20021;-80
2022/05/19 00:16:56;;;;;;;7.35;2.60;;;19.60;89.80;;;;;;5053337;28;20021;-80
2022/05/19 00:19:23;;;;;;;11.00;3.10;;;19.60;90.00;;;;;;5019232;28;20102;-81
2022/05/19 00:21:49;;;;;;;;;;;19.60;90.00;;;;;;5053673;28;20013;-81
2022/05/19 00:24:15;;;;;;;9.15;2.53;;;19.60;90.10;;;;;;5053118;28;20267;-80
2022/05/19 00:26:42;;;;;;;7.00;3.00;;;19.60;90.10;;;;;;5053145;28;20116;-80
2022/05/19 00:29:08;;;;;;;6.60;2.53;;;19.70;90.20;;;;;;5053018;28;20028;-81
2022/05/19 00:31:35;;;;;;;6.40;2.58;;;19.70;90.50;;;;;;5053206;28;20029;-81
2022/05/19 00:34:02;;;;;;;8.85;2.83;;;19.70;90.20;;;;;;5052947;28;20129;-80
2022/05/19 00:36:29;;;;;;;6.63;2.30;;;19.70;90.10;;;;;;5058247;28;20045;-80
2022/05/19 00:38:56;;;;;;;6.75;2.47;;;19.70;90.10;;;;;;5072694;28;20044;-80
2022/05/19 00:41:22;;;;;;;5.85;2.53;;;19.80;90.30;;;;;;5072678;28;20024;-79
2022/05/19 00:44:01;;;;;;;8.55;2.58;;;19.70;90.20;;;;;;5072575;28;20024;-81
2022/05/19 00:46:46;;;;;;;8.95;2.67;;;19.70;90.30;;;;;;5072437;28;20107;-79
2022/05/19 00:49:33;;;;;;;9.55;2.75;;;19.70;90.40;;;;;;5054553;28;20024;-81
2022/05/19 00:52:00;;;;;;;;;;;19.70;90.50;;;;;;5073149;28;20024;-80
2022/05/19 00:54:34;;;;;;;6.97;2.60;;;19.50;90.90;;;;;;5072340;28;20076;-80
2022/05/19 00:57:13;;;;;;;9.68;3.10;;;19.30;91.20;;;;;;5054019;28;20433;-80
2022/05/19 00:59:56;;;;;;;5.63;2.67;;;19.20;91.40;;;;;;5054063;28;20028;-80
2022/05/19 01:02:26;;;;;;;6.43;2.92;;;19.20;91.60;;;;;;5054087;28;20036;-80
2022/05/19 01:05:07;;;;;;;5.90;2.40;;;19.30;91.50;;;;;;5071191;28;20039;-80
2022/05/19 01:07:47;;;;;;;7.03;2.53;;;19.40;91.40;;;;;;5047647;28;20186;-79
2022/05/19 01:10:14;;;;;;;7.00;2.65;;;19.40;91.40;;;;;;5072034;28;20028;-78
2022/05/19 01:12:46;;;;;;;7.40;2.78;;;19.40;91.30;;;;;;5072236;28;20448;-80
2022/05/19 01:15:13;;;;;;;6.47;2.60;;;19.60;91.10;;;;;;5054085;28;20383;-79
2022/05/19 01:17:39;;;;;;;5.43;2.50;;;19.70;91.10;;;;;;5072041;28;20078;-79
2022/05/19 01:20:14;;;;;;;5.78;2.70;;;19.70;91.10;;;;;;5071601;28;20429;-79
2022/05/19 01:22:59;;;;;;;6.72;2.50;;;19.70;91.10;;;;;;5053458;28;20101;-79
2022/05/19 01:25:45;;;;;;;6.50;2.40;;;19.90;91.00;;;;;;5071486;28;20131;-80
2022/05/19 01:28:12;;;;;;;6.35;2.67;;;20.00;90.80;;;;;;5071660;28;20028;-79
2022/05/19 01:30:38;;;;;;;;;;;20.00;90.80;;;;;;5072346;28;20028;-80
2022/05/19 01:33:05;;;;;;;7.28;2.70;;;20.00;90.90;;;;;;5071538;28;19904;-79
2022/05/19 01:35:34;;;;;;;10.48;3.30;;;20.00;90.90;;;;;;5071785;28;20598;-80
2022/05/19 01:38:08;;;;;;;8.90;2.67;;;20.00;90.80;;;;;;5071102;28;20481;-80
2022/05/19 01:41:01;;;;;;;12.20;3.00;;;20.10;90.80;;;;;;5071831;28;20098;-80
2022/05/19 01:43:56;;;;;;;8.23;2.60;;;20.10;90.90;;;;;;5072059;28;20032;-80
2022/05/19 01:46:43;;;;;;;7.97;2.53;;;20.10;90.80;;;;;;5054071;28;20418;-79
2022/05/19 01:49:32;;;;;;;8.27;2.90;;;20.10;90.80;;;;;;5071710;28;20025;-80
2022/05/19 01:52:28;;;;;;;7.32;2.60;;;20.10;90.90;;;;;;5053615;28;20020;-79
2022/05/19 01:55:20;;;;;;;4.32;2.45;;;20.20;90.90;;;;;;5071302;28;20115;-79
2022/05/19 01:58:23;;;;;;;5.65;2.50;;;20.20;91.00;;;;;;5048102;28;20418;-80
2022/05/19 02:00:54;;;;;;;7.40;2.97;;;20.10;91.00;;;;;;5026388;28;20063;-80
2022/05/19 02:03:39;;;;;;;6.07;2.78;;;20.20;91.00;;;;;;5071372;28;20055;-80
2022/05/19 02:06:25;;;;;;;6.18;2.65;;;20.20;91.10;;;;;;5071316;28;20043;-79
2022/05/19 02:08:56;;;;;;;6.20;2.45;;;20.20;91.00;;;;;;5070928;28;20025;-79
2022/05/19 02:11:29;;;;;;;6.43;2.50;;;20.30;91.10;;;;;;5071073;28;20027;-78
2022/05/19 02:13:58;;;;;;;7.43;2.60;;;20.30;91.20;;;;;;5070694;28;20032;-80
2022/05/19 02:16:24;;;;;;;7.90;2.80;;;20.30;91.30;;;;;;5070968;28;20413;-80
2022/05/19 02:18:51;;;;;;;7.10;3.03;;;20.30;91.40;;;;;;5071147;28;20025;-80
2022/05/19 02:21:19;;;;;;;7.55;2.67;;;20.30;91.40;;;;;;5070962;28;20026;-80
2022/05/19 02:23:46;;;;;;;8.73;2.78;;;20.30;91.30;;;;;;5071201;28;20029;-80
2022/05/19 02:26:12;;;;;;;;;;;20.30;91.40;;;;;;5071369;28;20036;-79
2022/05/19 02:28:48;;;;;;;8.30;2.95;;;20.30;91.50;;;;;;5070655;28;19904;-80
2022/05/19 02:31:16;;;;;;;8.65;2.88;;;20.10;91.70;;;;;;5071007;28;20086;-80
2022/05/19 02:33:42;;;;;;;8.20;3.25;;;20.10;91.90;;;;;;5070911;28;20099;-80
2022/05/19 02:36:10;;;;;;;5.32;3.10;;;20.00;92.00;;;;;;5070720;28;20036;-80
2022/05/19 02:38:37;;;;;;;6.35;3.17;;;20.00;92.10;;;;;;5073483;28;20105;-80
2022/05/19 02:41:04;;;;;;;9.57;2.65;;;20.10;92.20;;;;;;5074805;28;20095;-79
2022/05/19 02:43:30;;;;;;;9.73;3.17;;;20.20;92.10;;;;;;5075021;28;20115;-80
2022/05/19 02:45:57;;;;;;;6.32;2.55;;;20.20;92.20;;;;;;5074972;28;20021;-80
2022/05/19 02:48:23;;;;;;;6.55;2.70;;;20.20;92.20;;;;;;5074732;28;20047;-79
2022/05/19 02:50:51;;;;;;;7.93;2.92;;;20.10;92.40;;;;;;5074397;28;20012;-80
2022/05/19 02:53:18;;;;;;;7.32;3.10;;;20.00;92.50;;;;;;5074466;28;20033;-81
2022/05/19 02:55:45;;;;;;;6.82;2.95;;;20.00;92.60;;;;;;5074567;28;20031;-80
2022/05/19 02:58:12;;;;;;;8.85;2.90;;;20.00;92.60;;;;;;5074572;28;20051;-79
2022/05/19 03:00:41;;;;;;;6.35;2.83;;;20.00;92.70;;;;;;5074417;28;20111;-80
2022/05/19 03:03:07;;;;;;;5.68;2.65;;;20.00;92.60;;;;;;5074843;28;20091;-80
2022/05/19 03:05:34;;;;;;;5.97;2.67;;;20.10;92.40;;;;;;5074793;28;20115;-80
2022/05/19 03:08:01;;;;;;;7.35;2.50;;;20.10;92.50;;;;;;5075407;28;20376;-80
2022/05/19 03:10:27;;;;;;;6.13;2.80;;;20.20;92.40;;;;;;5074772;28;20164;-80
2022/05/19 03:12:54;;;;;;;;;;;20.10;92.50;;;;;;5075146;28;20096;-80
2022/05/19 03:15:20;;;;;;;6.55;2.80;;;20.20;92.40;;;;;;5056304;28;19905;-79
2022/05/19 03:17:47;;;;;;;7.38;2.70;;;20.20;92.50;;;;;;5074505;28;20526;-80
2022/05/19 03:20:14;;;;;;;7.22;2.90;;;20.10;92.50;;;;;;5074477;28;20075;-79
2022/05/19 03:22:40;;;;;;;13.52;3.28;;;20.20;92.50;;;;;;5074660;28;20050;-80
2022/05/19 03:25:07;;;;;;;5.22;2.67;;;20.10;92.60;;;;;;5075595;28;20464;-80
2022/05/19 03:27:36;;;;;;;7.80;2.83;;;20.00;92.90;;;;;;5075869;28;20115;-79
2022/05/19 03:30:04;;;;;;;9.48;3.03;;;19.90;93.00;;;;;;5076044;28;20031;-80
2022/05/19 03:32:30;;;;;;;7.07;2.80;;;19.90;93.10;;;;;;5075772;28;20101;-82
2022/05/19 03:34:56;;;;;;;11.65;3.10;;;19.90;93.10;;;;;;5075385;28;20036;-81
2022/05/19 03:37:22;;;;;;;8.13;2.95;;;19.90;93.10;;;;;;5075511;28;20516;-81
2022/05/19 03:39:49;;;;;;;9.32;3.22;;;19.90;93.20;;;;;;5058255;28;20028;-81
2022/05/19 03:42:15;;;;;;;8.80;3.25;;;19.90;93.20;;;;;;5075921;28;20020;-81
2022/05/19 03:44:43;;;;;;;9.00;3.05;;;19.80;93.30;;;;;;5075096;28;20064;-79
2022/05/19 03:47:09;;;;;;;7.93;3.13;;;19.80;93.50;;;;;;5075112;28;20028;-79
2022/05/19 03:49:36;;;;;;;10.15;3.20;;;19.80;93.50;;;;;;5075850;28;20025;-80
2022/05/19 03:52:04;;;;;;;6.22;2.90;;;19.70;93.60;;;;;;5075414;28;20496;-80
2022/05/19 03:54:30;;;;;;;8.85;2.88;;;19.70;93.70;;;;;;5056876;28;20036;-80
2022/05/19 03:56:56;;;;;;;8.95;3.67;;;19.70;93.60;;;;;;5075075;28;20095;-80
2022/05/19 03:59:24;;;;;;;9.73;3.15;;;19.80;93.70;;;;;;5075273;28;20073;-80
2022/05/19 04:01:50;;;;;;;7.10;2.92;;;19.70;93.70;;;;;;5075234;28;20039;-80
2022/05/19 04:04:17;;;;;;;11.35;2.90;;;19.80;93.80;;;;;;5074439;28;20031;-80
2022/05/19 04:06:43;;;;;;;9.23;3.42;;;19.80;93.70;;;;;;5074798;28;20028;-80
2022/05/19 04:09:10;;;;;;;8.68;2.83;;;19.90;93.70;;;;;;5074504;28;20031;-79
2022/05/19 04:11:36;;;;;;;8.13;3.13;;;19.80;93.70;;;;;;5074721;28;20158;-79
2022/05/19 04:14:03;;;;;;;8.27;2.83;;;19.80;93.70;;;;;;5075293;28;20032;-80
2022/05/19 04:16:29;;;;;;;;;;;19.90;93.80;;;;;;5075545;28;20032;-81
2022/05/19 04:18:55;;;;;;;5.53;3.00;;;19.90;93.80;;;;;;5075458;28;20364;-80
2022/05/19 04:21:21;;;;;;;6.32;3.03;;;19.90;93.90;;;;;;5074961;28;20048;-79
2022/05/19 04:23:47;;;;;;;8.80;3.13;;;20.00;93.80;;;;;;5075214;28;20467;-79
2022/05/19 04:26:13;;;;;;;8.27;3.00;;;20.00;93.80;;;;;;5075231;28;20038;-80
2022/05/19 04:28:40;;;;;;;8.18;3.03;;;20.00;93.80;;;;;;5075003;28;20031;-80
2022/05/19 04:31:06;;;;;;;8.10;2.92;;;20.00;93.70;;;;;;5074859;28;20070;-80
2022/05/19 04:33:32;;;;;;;11.75;3.10;;;20.00;93.70;;;;;;5075060;28;20051;-80
2022/05/19 04:35:58;;;;;;;5.88;2.95;;;20.10;93.60;;;;;;5074584;28;20024;-80
2022/05/19 04:38:24;;;;;;;16.27;3.42;;;20.20;93.40;;;;;;5075341;28;20082;-81
2022/05/19 04:40:51;;;;;;;5.82;3.10;;;20.20;93.30;;;;;;5075383;28;20024;-81
2022/05/19 04:43:23;;;;;;;6.38;2.75;;;20.30;93.10;;;;;;5074635;28;20027;-80
2022/05/19 04:45:51;;;;;;;8.02;2.70;;;20.40;93.00;;;;;;5074507;28;20513;-81
2022/05/19 04:48:18;;;;;;;11.48;3.20;;;20.40;93.00;;;;;;5074653;28;20021;-81
2022/05/19 04:50:45;;;;;;;6.43;3.30;;;20.50;93.00;;;;;;5074972;28;20020;-81
2022/05/19 04:53:12;;;;;;;10.60;2.97;;;20.60;92.90;;;;;;5074572;28;20032;-80
2022/05/19 04:55:39;;;;;;;9.05;2.70;;;20.60;92.90;;;;;;5074705;28;20048;-81
2022/05/19 04:58:06;;;;;;;9.20;2.75;;;20.70;92.80;;;;;;5074696;28;20028;-82
2022/05/19 05:00:34;;;;;;;10.93;3.00;;;20.70;92.80;;;;;;5073559;28;20037;-80
2022/05/19 05:03:00;;;;;;;10.18;3.20;;;20.80;92.70;;;;;;5074961;28;20395;-82
2022/05/19 05:05:26;;;;;;;9.93;2.72;;;21.50;92.10;;;;;;5075059;28;20527;-83
2022/05/19 05:07:52;;;;;;;11.25;2.58;;;22.60;91.00;;;;;;5056479;28;20443;-82
2022/05/19 05:10:18;;;;;;;8.18;2.70;;;24.10;87.80;;;;;;5057244;28;20024;-82
2022/05/19 05:12:45;;;;;;;6.10;2.35;;;25.80;83.50;;;;;;5056321;28;20162;-82
2022/05/19 05:15:11;;;;;;;6.85;2.20;;;27.70;79.60;;;;;;5074209;28;20031;-82
2022/05/19 05:17:38;;;;;;;11.60;2.63;;;28.70;75.50;;;;;;5074597;28;20036;-82
2022/05/19 05:20:07;;;;;;;11.10;2.65;;;29.20;73.70;;;;;;5074474;28;20036;-82
2022/05/19 05:22:35;;;;;;;10.38;3.10;;;28.70;73.70;;;;;;5074546;28;20028;-82
2022/05/19 05:25:04;;;;;;;9.07;3.20;;;29.30;73.80;;;;;;5074505;28;20511;-81
2022/05/19 05:27:30;;;;;;;7.03;2.50;;;30.30;71.50;;;;;;5073589;28;20404;-81
2022/05/19 05:29:56;;;;;;;;;;;31.70;68.90;;;;;;5074263;28;20032;-80
2022/05/19 05:32:22;;;;;;;9.20;2.92;;;31.70;66.70;;;;;;5073625;28;19904;-81
2022/05/19 05:34:48;;;;;;;10.57;3.28;;;31.30;68.00;;;;;;5073128;28;20048;-80
2022/05/19 05:37:14;;;;;;;7.20;2.75;;;30.50;69.10;;;;;;5051663;28;20064;-81
2022/05/19 05:39:42;;;;;;;10.27;3.00;;;31.70;67.80;;;;;;5053544;28;20028;-80
2022/05/19 05:42:08;;;;;;;9.45;2.67;;;33.10;64.60;;;;;;5052927;28;20063;-82
2022/05/19 05:44:34;;;;;;;6.80;2.03;;;34.80;62.10;;;;;;5053625;28;20040;-81
2022/05/19 05:47:01;;;;;;;7.68;1.95;;;34.90;59.50;;;;;;5053265;28;20043;-82
2022/05/19 05:49:27;;;;;;;5.72;1.80;;;35.50;59.50;;;;;;5052562;28;20420;-82
2022/05/19 05:51:53;;;;;;;8.40;1.98;;;37.00;58.10;;;;;;5052665;28;20029;-80
2022/05/19 05:54:19;;;;;;;9.18;1.98;;;38.40;55.60;;;;;;5052785;28;20029;-90
2022/05/19 05:56:45;;;;;;;7.68;1.90;;;39.50;53.40;;;;;;5052331;28;20025;-83
2022/05/19 05:59:12;;;;;;;6.78;2.00;;;40.30;52.10;;;;;;5052282;28;20170;-81
2022/05/19 06:01:39;;;;;;;8.85;1.83;;;41.10;51.00;;;;;;5052134;28;20048;-84
2022/05/19 06:04:05;;;;;;;9.90;1.65;;;41.90;49.50;;;;;;5052290;28;20024;-84
2022/05/19 06:06:31;;;;;;;4.65;1.55;;;42.10;47.70;;;;;;5053158;28;20115;-84
2022/05/19 06:08:57;;;;;;;5.07;1.52;;;41.80;47.70;;;;;;5034083;28;20047;-84
2022/05/19 06:11:24;;;;;;;7.15;4.28;;;41.70;47.70;;;;;;5052296;28;20089;-84
2022/05/19 06:13:50;;;;;;;9.07;1.75;;;41.30;47.30;;;;;;5051365;28;20093;-84
2022/05/19 06:16:20;;;;;;;4.82;1.45;;;41.60;47.20;;;;;;5051882;28;20128;-84
2022/05/19 06:18:46;;;;;;;6.30;1.27;;;41.70;46.10;;;;;;5052347;28;20456;-84
2022/05/19 06:21:12;;;;;;;7.65;1.60;;;42.00;45.80;;;;;;5052408;28;20021;-81
2022/05/19 06:23:39;;;;;;;5.20;1.50;;;41.80;45.10;;;;;;5052510;28;20418;-84
2022/05/19 06:26:05;;;;;;;9.70;1.60;;;41.70;46.00;;;;;;5051835;28;20037;-84
2022/05/19 06:28:32;;;;;;;14.80;1.90;;;39.80;46.40;;;;;;5052002;28;20025;-84
2022/05/19 06:30:59;;;;;;;10.93;1.60;;;38.60;48.90;;;;;;5052528;28;20108;-83
2022/05/19 06:33:27;;;;;;;8.75;1.50;;;38.40;48.30;;;;;;5052718;28;20040;-83
2022/05/19 06:35:54;;;;;;;4.75;1.50;;;39.10;47.90;;;;;;5052958;28;20048;-84
2022/05/19 06:38:20;;;;;;;5.93;1.58;;;38.80;47.40;;;;;;5055688;28;20041;-83
2022/05/19 06:40:46;;;;;;;3.38;1.50;;;39.50;46.20;;;;;;5073067;28;20033;-82
2022/05/19 06:43:14;;;;;;;4.35;1.45;;;37.60;49.10;;;;;;5072746;28;20024;-82
2022/05/19 06:45:41;;;;;;;10.77;2.10;;;36.20;51.40;;;;;;5072462;28;20067;-84
2022/05/19 06:48:07;;;;;;;11.82;1.92;;;36.20;53.00;;;;;;5072368;28;20052;-83
2022/05/19 06:50:34;;;;;;;9.40;1.70;;;36.30;52.60;;;;;;5072307;28;20412;-82
2022/05/19 06:53:03;;;;;;;8.18;1.75;;;37.20;50.70;;;;;;5073202;28;20031;-83
2022/05/19 06:55:31;;;;;;;6.45;1.80;;;37.10;51.60;;;;;;5072676;28;20069;-84
2022/05/19 06:57:58;;;;;;;7.18;2.30;;;37.10;50.60;;;;;;5072748;28;20024;-82
2022/05/19 07:00:26;;;;;;;5.20;1.80;;;37.30;51.30;;;;;;5072076;28;20032;-82
2022/05/19 07:02:56;;;;;;;7.20;1.80;;;35.50;53.80;;;;;;5071948;28;20175;-85
2022/05/19 07:05:33;;;;;;;4.55;1.80;;;33.60;56.50;;;;;;5072136;28;20161;-83
2022/05/19 07:07:59;;;;;;;9.25;1.80;;;33.40;57.40;;;;;;5072067;28;20050;-83
2022/05/19 07:10:29;;;;;;;5.88;2.00;;;33.10;57.60;;;;;;5072064;28;20031;-83
2022/05/19 07:12:56;;;;;;;6.55;1.95;;;32.80;58.70;;;;;;5054219;28;20382;-84
2022/05/19 07:15:23;;;;;;;10.73;2.10;;;31.50;59.60;;;;;;5071458;28;20029;-84
2022/05/19 07:17:49;;;;;;;12.70;2.40;;;31.50;60.90;;;;;;5070746;28;20110;-83
2022/05/19 07:23:05;;;;;;;6.57;2.00;;;31.40;60.30;;;;;;5072305;28;20052;-83
2022/05/19 07:25:31;;;;;;;5.30;1.90;;;29.70;64.50;;;;;;5075551;28;20108;-84
2022/05/19 07:27:57;;;;;;;7.72;2.28;;;28.80;67.00;;;;;;5057715;28;20024;-83
2022/05/19 07:30:24;;;;;;;7.55;1.90;;;28.50;67.70;;;;;;5075862;28;20048;-83
2022/05/19 07:32:51;;;;;;;8.93;1.98;;;28.60;67.80;;;;;;5074738;28;20082;-82
2022/05/19 07:35:18;;;;;;;6.30;1.98;;;28.40;67.60;;;;;;5075578;28;20036;-83
2022/05/19 07:37:45;;;;;;;4.10;1.98;;;27.80;69.40;;;;;;5069887;28;20063;-82
2022/05/19 07:40:12;;;;;;;3.67;1.98;;;27.40;71.20;;;;;;5075934;28;20495;-84
2022/05/19 07:42:40;;;;;;;7.85;2.03;;;27.00;71.60;;;;;;5075595;28;20025;-83
2022/05/19 07:45:07;;;;;;;5.28;2.00;;;26.90;71.80;;;;;;5076234;28;20078;-83
2022/05/19 07:47:34;;;;;;;6.45;1.80;;;27.40;70.50;;;;;;5075494;28;20451;-83
2022/05/19 07:50:00;;;;;;;6.35;1.80;;;27.70;69.50;;;;;;5074513;28;20030;-82
2022/05/19 07:52:27;;;;;;;7.47;1.92;;;27.70;68.40;;;;;;5074740;28;20029;-83
2022/05/19 07:54:56;;;;;;;8.10;2.00;;;27.80;68.40;;;;;;5074437;28;20112;-83
2022/05/19 07:57:23;;;;;;;4.25;2.03;;;27.60;69.00;;;;;;5074909;28;20107;-83
2022/05/19 07:59:49;;;;;;;5.28;1.80;;;27.80;69.40;;;;;;5074588;28;20020;-83
2022/05/19 08:02:16;;;;;;;9.35;2.08;;;28.10;69.10;;;;;;5056801;28;20111;-82
2022/05/19 08:04:42;;;;;;;9.15;1.83;;;28.00;69.20;;;;;;5074699;28;20361;-83
2022/05/19 08:07:08;;;;;;;5.90;2.10;;;27.70;70.10;;;;;;5074575;28;20033;-82
2022/05/19 08:18:00;;;;;;;6.78;2.10;;;27.80;71.30;;;;;;5074551;28;20035;-83
2022/05/19 08:20:28;;;;;;;;;;;28.10;71.50;;;;;;5056945;28;20052;-83
2022/05/19 08:22:55;;;;;;;5.50;2.10;;;28.50;71.30;;;;;;5075465;28;20338;-84
2022/05/19 08:25:26;;;;;;;6.00;1.83;;;28.20;71.40;;;;;;5075343;28;20411;-83
2022/05/19 08:27:53;;;;;;;6.68;2.28;;;28.30;72.00;;;;;;5075159;28;20028;-83
2022/05/19 08:30:20;;;;;;;5.03;2.08;;;28.50;70.00;;;;;;5075015;28;20059;-83
2022/05/19 08:32:46;;;;;;;;;;;28.00;70.90;;;;;;5075450;28;20021;-83
2022/05/19 08:35:12;;;;;;;;;;;27.90;71.70;;;;;;5074222;28;20015;-82
2022/05/19 08:37:38;;;;;;;6.55;1.90;;;27.50;72.20;;;;;;5074193;28;19939;-83
2022/05/19 08:40:05;;;;;;;8.57;2.30;;;27.80;72.20;;;;;;5057146;28;20037;-83
2022/05/19 08:42:35;;;;;;;5.60;2.10;;;28.10;71.10;;;;;;5075382;28;20031;-83
2022/05/19 08:45:06;;;;;;;6.03;2.28;;;28.40;70.80;;;;;;5074303;28;20032;-83
2022/05/19 08:47:37;;;;;;;5.20;1.80;;;28.40;69.50;;;;;;5074841;28;20032;-82
2022/05/19 08:50:20;;;;;;;7.55;1.70;;;28.20;69.50;;;;;;5074009;28;20124;-83
2022/05/19 08:52:49;;;;;;;8.38;2.03;;;27.90;70.10;;;;;;5056646;28;20039;-84
2022/05/19 08:55:17;;;;;;;5.47;1.80;;;27.90;69.10;;;;;;5074658;28;20025;-84
2022/05/19 08:58:01;;;;;;;5.18;1.65;;;27.70;66.40;;;;;;5074382;28;20024;-83
2022/05/19 09:00:37;;;;;;;4.85;1.83;;;27.50;67.40;;;;;;5074899;28;20032;-83
2022/05/19 09:03:27;;;;;;;6.45;1.80;;;27.70;66.30;;;;;;5074468;28;20472;-83
2022/05/19 09:05:53;;;;;;;4.20;1.73;;;27.40;64.80;;;;;;5074367;28;20029;-83
2022/05/19 09:08:22;;;;;;;10.05;2.10;;;27.40;66.10;;;;;;5074322;28;20028;-83
2022/05/19 09:11:12;;;;;;;4.05;1.83;;;27.60;66.40;;;;;;5074790;28;20166;-83
2022/05/19 09:13:53;;;;;;;7.75;1.58;;;27.90;64.70;;;;;;5074306;28;20024;-82
2022/05/19 09:16:28;;;;;;;9.57;1.98;;;27.90;65.70;;;;;;5074557;28;20107;-83
2022/05/19 09:19:00;;;;;;;6.80;1.88;;;28.20;65.10;;;;;;5074523;28;20422;-84
2022/05/19 09:21:27;;;;;;;5.00;1.55;;;28.60;65.60;;;;;;5074926;28;20029;-83
2022/05/19 09:23:53;;;;;;;5.57;1.80;;;28.90;64.20;;;;;;5074398;28;20125;-84
2022/05/19 09:26:59;;;;;;;8.40;2.03;;;29.10;64.00;;;;;;5073970;28;20067;-82
2022/05/19 09:29:36;;;;;;;7.32;1.55;;;28.90;65.10;;;;;;4992358;28;20034;-83
2022/05/19 09:32:37;;;;;;;6.90;1.83;;;28.20;64.80;;;;;;4992638;28;20057;-83
2022/05/19 09:35:34;;;;;;;7.70;2.22;;;28.10;68.50;;;;;;4992135;28;20109;-83
2022/05/19 09:38:12;;;;;;;8.50;2.30;;;27.80;70.30;;;;;;4975277;28;20426;-83
2022/05/19 09:40:41;;;;;;;12.63;2.10;;;27.70;70.60;;;;;;4992472;28;20526;-82
2022/05/19 09:43:28;;;;;;;7.88;1.85;;;27.90;70.40;;;;;;4975255;28;20042;-83
2022/05/19 09:46:07;;;;;;;10.07;2.50;;;28.10;70.00;;;;;;4991287;28;20026;-84
2022/05/19 09:48:41;;;;;;;6.35;2.10;;;28.50;70.00;;;;;;4991795;28;20053;-84
2022/05/19 09:51:14;;;;;;;4.68;1.95;;;28.70;69.50;;;;;;4991764;28;20061;-84
2022/05/19 09:53:49;;;;;;;7.60;2.03;;;28.90;68.60;;;;;;4975026;28;20125;-84
2022/05/19 09:56:39;;;;;;;11.13;3.53;;;28.80;68.80;;;;;;4991395;28;20041;-82
2022/05/19 09:59:15;;;;;;;6.93;2.38;;;28.60;68.70;;;;;;4996232;28;20273;-83
2022/05/19 10:01:45;;;;;;;8.32;2.42;;;28.50;70.00;;;;;;5072724;28;20028;-84
2022/05/19 10:04:39;;;;;;;6.82;2.10;;;28.80;69.10;;;;;;5053590;28;20039;-83
2022/05/19 10:07:23;;;;;;;6.10;2.22;;;29.00;68.70;;;;;;5053343;28;20152;-83
2022/05/19 10:09:51;;;;;;;8.05;2.15;;;29.10;67.80;;;;;;5053264;28;20025;-85
2022/05/19 10:12:28;;;;;;;6.13;2.28;;;28.80;68.50;;;;;;5071946;28;20157;-84
2022/05/19 10:15:11;;;;;;;6.82;2.53;;;28.70;69.10;;;;;;5071600;28;20029;-82
2022/05/19 10:18:00;;;;;;;5.90;1.98;;;28.90;68.30;;;;;;5067332;28;20111;-83
2022/05/19 10:20:37;;;;;;;11.38;2.35;;;28.80;68.40;;;;;;5071919;28;20020;-81
2022/05/19 10:23:19;;;;;;;12.07;2.58;;;28.70;68.90;;;;;;5072293;28;20471;-84
2022/05/19 10:26:07;;;;;;;8.45;2.50;;;28.80;68.20;;;;;;5051915;28;20036;-83
2022/05/19 10:32:18;;;;;;;9.70;2.38;;;28.50;67.60;;;;;;5052648;28;20524;-83
2022/05/19 10:34:53;;;;;;;7.20;2.20;;;28.40;68.40;;;;;;5052530;28;20087;-82
2022/05/19 10:37:53;;;;;;;13.07;2.50;;;28.40;68.80;;;;;;5051694;28;20065;-84
2022/05/19 10:40:33;;;;;;;7.47;2.20;;;28.50;69.50;;;;;;5052508;28;20104;-84
2022/05/19 10:43:05;;;;;;;8.77;2.20;;;28.60;67.90;;;;;;5052165;28;20024;-84
2022/05/19 10:45:37;;;;;;;7.03;2.00;;;28.40;68.90;;;;;;5051800;28;20021;-85
2022/05/19 10:48:24;;;;;;;10.43;2.30;;;28.30;69.50;;;;;;5052760;28;20463;-84
2022/05/19 10:51:01;;;;;;;8.63;2.50;;;28.50;68.70;;;;;;5068023;28;20027;-85
2022/05/19 10:53:39;;;;;;;6.78;2.50;;;28.40;68.80;;;;;;5071927;28;20123;-84
2022/05/19 10:56:33;;;;;;;9.20;2.17;;;28.50;70.90;;;;;;5071405;28;20029;-84
2022/05/19 10:59:13;;;;;;;11.27;2.70;;;28.50;69.10;;;;;;5073702;28;20052;-85
2022/05/19 11:02:26;;;;;;;7.35;2.20;;;28.40;71.00;;;;;;5057520;28;20017;-85
2022/05/19 11:05:13;;;;;;;9.20;2.28;;;28.10;70.30;;;;;;5075080;28;20032;-84
2022/05/19 11:08:01;;;;;;;10.82;2.60;;;28.10;70.70;;;;;;5075592;28;20507;-84
2022/05/19 11:10:48;;;;;;;10.82;2.65;;;28.10;71.10;;;;;;5063638;28;20029;-85
2022/05/19 11:13:37;;;;;;;7.05;2.60;;;28.20;71.10;;;;;;5055684;28;20064;-85
2022/05/19 11:16:03;;;;;;;12.18;2.60;;;28.20;70.80;;;;;;5055930;28;20100;-85
2022/05/19 11:18:32;;;;;;;14.10;2.80;;;28.40;70.00;;;;;;5056325;28;20078;-84
2022/05/19 11:21:16;;;;;;;5.65;2.20;;;28.20;70.40;;;;;;5056245;28;20075;-85
2022/05/19 11:23:55;;;;;;;6.57;2.33;;;28.10;70.60;;;;;;5056261;28;20021;-84
2022/05/19 11:26:32;;;;;;;7.88;2.38;;;28.20;70.30;;;;;;5056021;28;20040;-85
2022/05/19 11:29:19;;;;;;;5.45;2.30;;;28.40;69.70;;;;;;5056225;28;20071;-84
2022/05/19 11:31:54;;;;;;;11.48;2.30;;;28.10;68.80;;;;;;5055971;28;20036;-86
2022/05/19 11:34:48;;;;;;;12.57;2.37;;;27.90;70.20;;;;;;5056003;28;20408;-86
2022/05/19 11:37:38;;;;;;;8.80;2.10;;;27.90;69.40;;;;;;5055936;28;20049;-86
2022/05/19 11:40:29;;;;;;;11.95;2.92;;;28.10;69.50;;;;;;5056440;28;20381;-87
2022/05/19 11:43:09;;;;;;;8.13;2.10;;;28.10;68.60;;;;;;5057721;28;20028;-86
2022/05/19 11:45:58;;;;;;;8.27;2.53;;;28.20;67.30;;;;;;5037428;28;20454;-85
2022/05/19 11:57:17;;;;;;;7.30;2.30;;;28.40;68.30;;;;;;5055278;28;20112;-84
2022/05/19 11:59:50;;;;;;;7.35;2.47;;;28.40;68.30;;;;;;5054818;28;20028;-84
2022/05/19 12:02:26;;;;;;;12.48;2.50;;;28.30;68.40;;;;;;5055585;28;20065;-83
2022/05/19 12:04:59;;;;;;;6.20;2.22;;;28.40;68.30;;;;;;5055585;28;20041;-83
2022/05/19 12:07:45;;;;;;;8.32;2.58;;;28.50;68.60;;;;;;5056125;28;20035;-83
2022/05/19 12:10:17;;;;;;;6.47;2.50;;;28.40;69.30;;;;;;5054086;28;20032;-81
2022/05/19 12:12:57;;;;;;;8.20;2.25;;;28.50;71.00;;;;;;5055996;28;20025;-82
2022/05/19 12:15:32;;;;;;;5.85;2.50;;;28.40;71.00;;;;;;5037306;28;20039;-82
2022/05/19 12:18:11;;;;;;;11.27;2.50;;;28.40;70.50;;;;;;5037324;28;20480;-82
2022/05/19 12:21:09;;;;;;;7.38;2.70;;;28.20;70.80;;;;;;5067176;28;20436;-82
2022/05/19 12:23:40;;;;;;;9.25;2.67;;;28.20;71.10;;;;;;5061200;28;20036;-82
2022/05/19 12:26:17;;;;;;;10.05;2.47;;;28.30;71.90;;;;;;5075173;28;20440;-82
2022/05/19 12:29:11;;;;;;;7.45;2.60;;;28.10;72.60;;;;;;5057437;28;20373;-81
2022/05/19 12:31:59;;;;;;;6.60;2.55;;;28.40;73.40;;;;;;5074930;28;20490;-82
2022/05/19 12:34:32;;;;;;;10.10;2.63;;;28.40;75.10;;;;;;5074699;28;20028;-82
2022/05/19 12:37:30;;;;;;;16.02;2.72;;;28.40;74.10;;;;;;5074719;28;20123;-82
2022/05/19 12:40:27;;;;;;;8.50;2.92;;;28.30;75.50;;;;;;5074537;28;20040;-80
2022/05/19 12:43:17;;;;;;;8.82;2.88;;;27.90;75.70;;;;;;5075163;28;20028;-80
2022/05/19 12:45:52;;;;;;;24.17;3.20;;;27.60;76.70;;;;;;5075248;28;20021;-81
2022/05/19 12:48:21;;;;;;;12.43;2.88;;;27.60;78.20;;;;;;5074385;28;20123;-81
2022/05/19 12:51:11;;;;;;;17.30;2.70;;;27.40;78.70;;;;;;5074150;28;20028;-81
2022/05/19 12:53:49;;;;;;;20.27;3.10;;;27.40;78.40;;;;;;5074477;28;20035;-81
2022/05/19 12:56:40;;;;;;;7.90;2.67;;;27.20;78.40;;;;;;5074309;28;20099;-81
2022/05/19 12:59:27;;;;;;;8.27;2.80;;;27.30;79.30;;;;;;5074574;28;20017;-81
2022/05/19 13:01:57;;;;;;;9.45;2.80;;;27.40;79.60;;;;;;5073987;28;20503;-82
2022/05/19 13:04:29;;;;;;;7.57;2.75;;;27.30;78.90;;;;;;5074506;28;20028;-81
2022/05/19 13:07:14;;;;;;;10.07;3.03;;;27.50;79.60;;;;;;5074194;28;20032;-81
2022/05/19 13:09:42;;;;;;;12.10;3.33;;;27.60;79.30;;;;;;5098185;22;20025;-80
2022/05/19 13:12:19;;;;;;;11.70;3.30;;;27.60;79.30;;;;;;5033490;28;20060;-80
2022/05/19 13:14:52;;;;;;;12.00;3.10;;;27.50;80.00;;;;;;5034449;28;20032;-82
2022/05/19 13:17:34;;;;;;;9.52;2.90;;;27.60;80.10;;;;;;5034402;28;20083;-80
2022/05/19 13:20:04;;;;;;;7.82;2.83;;;27.70;80.40;;;;;;5034064;28;20037;-80
2022/05/19 13:22:35;;;;;;;14.23;3.17;;;27.70;80.50;;;;;;5033845;28;20112;-80
2022/05/19 13:25:05;;;;;;;11.77;2.80;;;27.70;82.30;;;;;;5034544;28;20013;-81
2022/05/19 13:30:30;;;;;;;14.90;3.33;;;27.00;84.50;;;;;;5034483;28;20507;-80
2022/05/19 13:33:10;;;;;;;14.10;3.03;;;26.90;85.10;;;;;;5034524;28;20060;-81
2022/05/19 13:35:37;;;;;;;8.30;3.13;;;27.00;85.00;;;;;;5034612;28;20067;-81
2022/05/19 13:38:23;;;;;;;7.45;3.00;;;27.10;83.40;;;;;;5033832;28;20022;-81
2022/05/19 13:40:52;;;;;;;8.77;2.80;;;27.20;82.80;;;;;;5034293;28;20100;-81
2022/05/19 13:43:22;;;;;;;7.30;2.92;;;27.10;83.80;;;;;;5033926;28;20029;-81